sensor_id;sensor_type;location;lat;lon;timestamp;P1;durP1;ratioP1;P2;durP2;ratioP2
75928;SDS011;64606;44.062;2.986;2023-02-12T00:00:09;44.58;;;19.23;;
75928;SDS011;64606;44.062;2.986;2023-02-12T00:02:35;40.47;;;18.23;;
75928;SDS011;64606;44.062;2.986;2023-02-12T00:05:01;42.42;;;19.20;;
75928;SDS011;64606;44.062;2.986;2023-02-12T00:07:30;41.42;;;17.10;;
75928;SDS011;64606;44.062;2.986;2023-02-12T00:09:56;40.08;;;16.65;;
75928;SDS011;64606;44.062;2.986;2023-02-12T00:12:22;37.92;;;16.65;;
75928;SDS011;64606;44.062;2.986;2023-02-12T00:14:49;41.17;;;17.65;;
75928;SDS011;64606;44.062;2.986;2023-02-12T00:17:15;48.03;;;19.92;;
75928;SDS011;64606;44.062;2.986;2023-02-12T00:19:41;46.78;;;19.85;;
75928;SDS011;64606;44.062;2.986;2023-02-12T00:22:07;38.40;;;16.95;;
75928;SDS011;64606;44.062;2.986;2023-02-12T00:24:33;40.53;;;16.80;;
75928;SDS011;64606;44.062;2.986;2023-02-12T00:26:59;43.72;;;19.65;;
75928;SDS011;64606;44.062;2.986;2023-02-12T00:29:25;36.08;;;15.70;;
75928;SDS011;64606;44.062;2.986;2023-02-12T00:31:51;40.88;;;17.20;;
75928;SDS011;64606;44.062;2.986;2023-02-12T00:34:18;38.53;;;17.30;;
75928;SDS011;64606;44.062;2.986;2023-02-12T00:36:44;31.25;;;14.93;;
75928;SDS011;64606;44.062;2.986;2023-02-12T00:39:10;33.60;;;14.68;;
75928;SDS011;64606;44.062;2.986;2023-02-12T00:41:36;38.72;;;16.35;;
75928;SDS011;64606;44.062;2.986;2023-02-12T00:44:03;40.95;;;17.73;;
75928;SDS011;64606;44.062;2.986;2023-02-12T00:46:29;48.58;;;18.25;;
75928;SDS011;64606;44.062;2.986;2023-02-12T00:48:55;47.08;;;20.88;;
75928;SDS011;64606;44.062;2.986;2023-02-12T00:51:21;44.25;;;19.52;;
75928;SDS011;64606;44.062;2.986;2023-02-12T00:53:47;37.75;;;16.30;;
75928;SDS011;64606;44.062;2.986;2023-02-12T00:56:13;33.45;;;15.85;;
75928;SDS011;64606;44.062;2.986;2023-02-12T00:58:39;33.28;;;14.63;;
75928;SDS011;64606;44.062;2.986;2023-02-12T01:01:05;35.20;;;15.77;;
75928;SDS011;64606;44.062;2.986;2023-02-12T01:03:32;35.20;;;16.02;;
75928;SDS011;64606;44.062;2.986;2023-02-12T01:05:58;28.65;;;14.05;;
75928;SDS011;64606;44.062;2.986;2023-02-12T01:08:24;31.17;;;13.85;;
75928;SDS011;64606;44.062;2.986;2023-02-12T01:10:57;31.63;;;14.30;;
75928;SDS011;64606;44.062;2.986;2023-02-12T01:13:24;28.95;;;14.15;;
75928;SDS011;64606;44.062;2.986;2023-02-12T01:16:00;28.85;;;13.35;;
75928;SDS011;64606;44.062;2.986;2023-02-12T01:20:52;27.77;;;13.07;;
75928;SDS011;64606;44.062;2.986;2023-02-12T01:23:18;34.90;;;15.50;;
75928;SDS011;64606;44.062;2.986;2023-02-12T01:25:44;33.83;;;15.65;;
75928;SDS011;64606;44.062;2.986;2023-02-12T01:28:10;32.88;;;15.00;;
75928;SDS011;64606;44.062;2.986;2023-02-12T01:30:36;34.95;;;14.85;;
75928;SDS011;64606;44.062;2.986;2023-02-12T01:33:03;29.27;;;13.70;;
75928;SDS011;64606;44.062;2.986;2023-02-12T01:35:29;29.23;;;13.65;;
75928;SDS011;64606;44.062;2.986;2023-02-12T01:37:55;31.75;;;14.85;;
75928;SDS011;64606;44.062;2.986;2023-02-12T01:40:22;30.42;;;14.45;;
75928;SDS011;64606;44.062;2.986;2023-02-12T01:42:49;28.90;;;13.88;;
75928;SDS011;64606;44.062;2.986;2023-02-12T01:47:42;30.27;;;14.60;;
75928;SDS011;64606;44.062;2.986;2023-02-12T01:50:12;27.70;;;13.13;;
75928;SDS011;64606;44.062;2.986;2023-02-12T01:52:40;29.13;;;14.43;;
75928;SDS011;64606;44.062;2.986;2023-02-12T01:55:08;29.70;;;14.45;;
75928;SDS011;64606;44.062;2.986;2023-02-12T01:57:37;27.77;;;13.73;;
75928;SDS011;64606;44.062;2.986;2023-02-12T02:00:05;27.60;;;13.23;;
75928;SDS011;64606;44.062;2.986;2023-02-12T02:02:32;30.83;;;14.23;;
75928;SDS011;64606;44.062;2.986;2023-02-12T02:05:00;26.75;;;12.38;;
75928;SDS011;64606;44.062;2.986;2023-02-12T02:07:27;28.58;;;13.25;;
75928;SDS011;64606;44.062;2.986;2023-02-12T02:09:54;26.27;;;13.20;;
75928;SDS011;64606;44.062;2.986;2023-02-12T02:12:20;25.80;;;12.45;;
75928;SDS011;64606;44.062;2.986;2023-02-12T02:15:05;27.63;;;12.85;;
75928;SDS011;64606;44.062;2.986;2023-02-12T02:17:39;29.00;;;13.45;;
75928;SDS011;64606;44.062;2.986;2023-02-12T02:22:37;25.85;;;13.02;;
75928;SDS011;64606;44.062;2.986;2023-02-12T02:32:54;28.42;;;13.70;;
75928;SDS011;64606;44.062;2.986;2023-02-12T02:35:24;29.75;;;13.55;;
75928;SDS011;64606;44.062;2.986;2023-02-12T02:41:23;27.08;;;12.80;;
75928;SDS011;64606;44.062;2.986;2023-02-12T02:43:26;28.92;;;13.82;;
75928;SDS011;64606;44.062;2.986;2023-02-12T02:45:54;30.73;;;13.63;;
75928;SDS011;64606;44.062;2.986;2023-02-12T02:48:28;31.52;;;13.80;;
75928;SDS011;64606;44.062;2.986;2023-02-12T02:50:58;33.63;;;13.85;;
75928;SDS011;64606;44.062;2.986;2023-02-12T02:53:34;27.45;;;13.18;;
75928;SDS011;64606;44.062;2.986;2023-02-12T02:56:02;31.00;;;13.65;;
75928;SDS011;64606;44.062;2.986;2023-02-12T02:58:34;30.30;;;13.13;;
75928;SDS011;64606;44.062;2.986;2023-02-12T03:01:02;28.35;;;12.95;;
75928;SDS011;64606;44.062;2.986;2023-02-12T03:06:02;28.88;;;13.02;;
75928;SDS011;64606;44.062;2.986;2023-02-12T03:08:30;25.80;;;12.18;;
75928;SDS011;64606;44.062;2.986;2023-02-12T03:11:32;29.75;;;13.32;;
75928;SDS011;64606;44.062;2.986;2023-02-12T03:13:55;25.83;;;13.02;;
75928;SDS011;64606;44.062;2.986;2023-02-12T03:16:30;24.70;;;12.25;;
75928;SDS011;64606;44.062;2.986;2023-02-12T03:19:02;24.43;;;12.27;;
75928;SDS011;64606;44.062;2.986;2023-02-12T03:21:32;29.95;;;12.73;;
75928;SDS011;64606;44.062;2.986;2023-02-12T03:24:04;27.83;;;13.13;;
75928;SDS011;64606;44.062;2.986;2023-02-12T03:26:52;27.38;;;12.10;;
75928;SDS011;64606;44.062;2.986;2023-02-12T03:29:19;29.67;;;13.32;;
75928;SDS011;64606;44.062;2.986;2023-02-12T03:32:28;25.42;;;12.90;;
75928;SDS011;64606;44.062;2.986;2023-02-12T03:37:11;26.65;;;12.52;;
75928;SDS011;64606;44.062;2.986;2023-02-12T03:39:51;29.75;;;12.90;;
75928;SDS011;64606;44.062;2.986;2023-02-12T03:42:21;26.42;;;12.73;;
75928;SDS011;64606;44.062;2.986;2023-02-12T03:44:52;34.47;;;15.25;;
75928;SDS011;64606;44.062;2.986;2023-02-12T03:47:24;29.65;;;13.98;;
75928;SDS011;64606;44.062;2.986;2023-02-12T03:49:59;25.52;;;11.60;;
75928;SDS011;64606;44.062;2.986;2023-02-12T03:54:53;28.10;;;12.60;;
75928;SDS011;64606;44.062;2.986;2023-02-12T03:57:20;27.60;;;13.05;;
75928;SDS011;64606;44.062;2.986;2023-02-12T03:59:47;30.85;;;13.32;;
75928;SDS011;64606;44.062;2.986;2023-02-12T04:02:14;33.45;;;13.02;;
75928;SDS011;64606;44.062;2.986;2023-02-12T04:04:42;26.95;;;12.38;;
75928;SDS011;64606;44.062;2.986;2023-02-12T04:07:08;26.05;;;12.07;;
75928;SDS011;64606;44.062;2.986;2023-02-12T04:09:35;38.67;;;15.43;;
75928;SDS011;64606;44.062;2.986;2023-02-12T04:14:51;56.67;;;22.25;;
75928;SDS011;64606;44.062;2.986;2023-02-12T04:28:09;28.20;;;12.50;;
75928;SDS011;64606;44.062;2.986;2023-02-12T04:30:54;27.02;;;12.75;;
75928;SDS011;64606;44.062;2.986;2023-02-12T04:33:22;32.42;;;14.32;;
75928;SDS011;64606;44.062;2.986;2023-02-12T04:35:59;28.17;;;12.95;;
75928;SDS011;64606;44.062;2.986;2023-02-12T04:38:37;29.60;;;12.95;;
75928;SDS011;64606;44.062;2.986;2023-02-12T04:41:05;35.58;;;14.70;;
75928;SDS011;64606;44.062;2.986;2023-02-12T04:43:33;26.48;;;12.70;;
75928;SDS011;64606;44.062;2.986;2023-02-12T04:46:00;31.67;;;12.93;;
75928;SDS011;64606;44.062;2.986;2023-02-12T04:48:27;30.90;;;12.32;;
75928;SDS011;64606;44.062;2.986;2023-02-12T04:50:53;28.70;;;12.73;;
75928;SDS011;64606;44.062;2.986;2023-02-12T04:53:19;23.33;;;11.57;;
75928;SDS011;64606;44.062;2.986;2023-02-12T04:55:45;26.55;;;12.52;;
75928;SDS011;64606;44.062;2.986;2023-02-12T04:58:12;26.13;;;11.80;;
75928;SDS011;64606;44.062;2.986;2023-02-12T05:00:38;24.00;;;11.63;;
75928;SDS011;64606;44.062;2.986;2023-02-12T05:03:04;26.17;;;12.13;;
75928;SDS011;64606;44.062;2.986;2023-02-12T05:05:31;24.80;;;11.05;;
75928;SDS011;64606;44.062;2.986;2023-02-12T05:07:57;26.00;;;11.80;;
75928;SDS011;64606;44.062;2.986;2023-02-12T05:10:23;23.02;;;11.90;;
75928;SDS011;64606;44.062;2.986;2023-02-12T05:12:53;24.67;;;11.23;;
75928;SDS011;64606;44.062;2.986;2023-02-12T05:15:20;27.48;;;12.38;;
75928;SDS011;64606;44.062;2.986;2023-02-12T05:17:46;23.40;;;11.80;;
75928;SDS011;64606;44.062;2.986;2023-02-12T05:20:12;27.20;;;13.00;;
75928;SDS011;64606;44.062;2.986;2023-02-12T05:22:39;27.33;;;12.93;;
75928;SDS011;64606;44.062;2.986;2023-02-12T05:25:05;23.95;;;12.90;;
75928;SDS011;64606;44.062;2.986;2023-02-12T05:27:31;26.20;;;11.25;;
75928;SDS011;64606;44.062;2.986;2023-02-12T05:29:58;25.80;;;12.10;;
75928;SDS011;64606;44.062;2.986;2023-02-12T05:32:24;27.40;;;11.73;;
75928;SDS011;64606;44.062;2.986;2023-02-12T05:34:50;27.23;;;11.70;;
75928;SDS011;64606;44.062;2.986;2023-02-12T05:37:16;23.98;;;11.35;;
75928;SDS011;64606;44.062;2.986;2023-02-12T05:39:42;19.75;;;10.18;;
75928;SDS011;64606;44.062;2.986;2023-02-12T05:42:08;25.85;;;10.98;;
75928;SDS011;64606;44.062;2.986;2023-02-12T05:44:34;23.80;;;11.25;;
75928;SDS011;64606;44.062;2.986;2023-02-12T05:47:00;25.20;;;11.52;;
75928;SDS011;64606;44.062;2.986;2023-02-12T05:49:26;24.67;;;11.02;;
75928;SDS011;64606;44.062;2.986;2023-02-12T05:51:53;25.25;;;11.43;;
75928;SDS011;64606;44.062;2.986;2023-02-12T05:54:19;25.63;;;10.60;;
75928;SDS011;64606;44.062;2.986;2023-02-12T05:56:45;27.48;;;12.25;;
75928;SDS011;64606;44.062;2.986;2023-02-12T05:59:14;23.30;;;12.20;;
75928;SDS011;64606;44.062;2.986;2023-02-12T06:01:41;27.50;;;12.40;;
75928;SDS011;64606;44.062;2.986;2023-02-12T06:04:09;23.75;;;11.30;;
75928;SDS011;64606;44.062;2.986;2023-02-12T06:06:36;27.40;;;11.88;;
75928;SDS011;64606;44.062;2.986;2023-02-12T06:09:06;22.88;;;11.13;;
75928;SDS011;64606;44.062;2.986;2023-02-12T06:11:32;22.67;;;10.52;;
75928;SDS011;64606;44.062;2.986;2023-02-12T06:14:00;22.25;;;10.40;;
75928;SDS011;64606;44.062;2.986;2023-02-12T06:16:27;26.02;;;11.57;;
75928;SDS011;64606;44.062;2.986;2023-02-12T06:18:53;23.05;;;10.57;;
75928;SDS011;64606;44.062;2.986;2023-02-12T06:21:20;25.08;;;12.63;;
75928;SDS011;64606;44.062;2.986;2023-02-12T06:23:47;29.77;;;14.15;;
75928;SDS011;64606;44.062;2.986;2023-02-12T06:26:14;26.23;;;12.57;;
75928;SDS011;64606;44.062;2.986;2023-02-12T06:28:40;22.45;;;10.65;;
75928;SDS011;64606;44.062;2.986;2023-02-12T06:31:21;26.02;;;10.77;;
75928;SDS011;64606;44.062;2.986;2023-02-12T06:33:47;21.75;;;10.70;;
75928;SDS011;64606;44.062;2.986;2023-02-12T06:36:14;24.15;;;11.48;;
75928;SDS011;64606;44.062;2.986;2023-02-12T06:38:40;23.77;;;10.32;;
75928;SDS011;64606;44.062;2.986;2023-02-12T06:41:06;20.48;;;10.38;;
75928;SDS011;64606;44.062;2.986;2023-02-12T06:43:32;24.05;;;10.55;;
75928;SDS011;64606;44.062;2.986;2023-02-12T06:46:01;28.50;;;12.55;;
75928;SDS011;64606;44.062;2.986;2023-02-12T06:48:28;26.38;;;11.95;;
75928;SDS011;64606;44.062;2.986;2023-02-12T06:50:54;25.15;;;11.32;;
75928;SDS011;64606;44.062;2.986;2023-02-12T06:53:20;23.45;;;11.10;;
75928;SDS011;64606;44.062;2.986;2023-02-12T06:55:46;26.80;;;10.95;;
75928;SDS011;64606;44.062;2.986;2023-02-12T06:58:13;22.55;;;10.90;;
75928;SDS011;64606;44.062;2.986;2023-02-12T07:00:39;25.48;;;11.50;;
75928;SDS011;64606;44.062;2.986;2023-02-12T07:03:05;48.88;;;17.80;;
75928;SDS011;64606;44.062;2.986;2023-02-12T07:05:31;45.58;;;17.38;;
75928;SDS011;64606;44.062;2.986;2023-02-12T07:08:01;38.28;;;14.85;;
75928;SDS011;64606;44.062;2.986;2023-02-12T07:10:27;34.72;;;17.13;;
75928;SDS011;64606;44.062;2.986;2023-02-12T07:12:54;29.67;;;15.60;;
75928;SDS011;64606;44.062;2.986;2023-02-12T07:15:20;40.40;;;21.83;;
75928;SDS011;64606;44.062;2.986;2023-02-12T07:17:46;26.85;;;13.45;;
75928;SDS011;64606;44.062;2.986;2023-02-12T07:20:12;27.63;;;13.38;;
75928;SDS011;64606;44.062;2.986;2023-02-12T07:22:38;26.08;;;13.00;;
75928;SDS011;64606;44.062;2.986;2023-02-12T07:25:06;23.40;;;10.50;;
75928;SDS011;64606;44.062;2.986;2023-02-12T07:27:34;22.40;;;11.48;;
75928;SDS011;64606;44.062;2.986;2023-02-12T07:30:01;21.45;;;10.45;;
75928;SDS011;64606;44.062;2.986;2023-02-12T07:32:27;17.65;;;9.88;;
75928;SDS011;64606;44.062;2.986;2023-02-12T07:34:53;27.20;;;12.10;;
75928;SDS011;64606;44.062;2.986;2023-02-12T07:37:20;38.70;;;15.40;;
75928;SDS011;64606;44.062;2.986;2023-02-12T07:39:47;46.10;;;16.08;;
75928;SDS011;64606;44.062;2.986;2023-02-12T07:42:13;62.38;;;21.45;;
75928;SDS011;64606;44.062;2.986;2023-02-12T07:44:39;37.72;;;14.30;;
75928;SDS011;64606;44.062;2.986;2023-02-12T07:47:06;40.63;;;16.73;;
75928;SDS011;64606;44.062;2.986;2023-02-12T07:49:32;51.35;;;21.20;;
75928;SDS011;64606;44.062;2.986;2023-02-12T07:51:58;35.30;;;14.55;;
75928;SDS011;64606;44.062;2.986;2023-02-12T07:54:24;115.70;;;40.67;;
75928;SDS011;64606;44.062;2.986;2023-02-12T07:56:50;44.50;;;20.25;;
75928;SDS011;64606;44.062;2.986;2023-02-12T07:59:17;47.05;;;22.30;;
75928;SDS011;64606;44.062;2.986;2023-02-12T08:01:47;49.72;;;22.27;;
75928;SDS011;64606;44.062;2.986;2023-02-12T08:04:14;39.05;;;17.85;;
75928;SDS011;64606;44.062;2.986;2023-02-12T08:06:41;73.00;;;30.90;;
75928;SDS011;64606;44.062;2.986;2023-02-12T08:09:09;41.50;;;18.70;;
75928;SDS011;64606;44.062;2.986;2023-02-12T08:11:35;65.47;;;29.38;;
75928;SDS011;64606;44.062;2.986;2023-02-12T08:14:02;96.18;;;36.83;;
75928;SDS011;64606;44.062;2.986;2023-02-12T08:16:29;60.33;;;24.48;;
75928;SDS011;64606;44.062;2.986;2023-02-12T08:18:56;40.05;;;17.88;;
75928;SDS011;64606;44.062;2.986;2023-02-12T08:21:24;53.17;;;24.30;;
75928;SDS011;64606;44.062;2.986;2023-02-12T08:23:50;69.95;;;32.13;;
75928;SDS011;64606;44.062;2.986;2023-02-12T08:26:22;62.33;;;24.70;;
75928;SDS011;64606;44.062;2.986;2023-02-12T08:28:50;36.85;;;16.65;;
75928;SDS011;64606;44.062;2.986;2023-02-12T08:31:21;33.90;;;16.67;;
75928;SDS011;64606;44.062;2.986;2023-02-12T08:33:48;220.23;;;99.60;;
75928;SDS011;64606;44.062;2.986;2023-02-12T08:36:16;122.93;;;56.47;;
75928;SDS011;64606;44.062;2.986;2023-02-12T08:38:43;76.95;;;36.10;;
75928;SDS011;64606;44.062;2.986;2023-02-12T08:41:11;65.93;;;30.33;;
75928;SDS011;64606;44.062;2.986;2023-02-12T08:43:37;63.78;;;27.25;;
75928;SDS011;64606;44.062;2.986;2023-02-12T08:46:08;46.53;;;21.80;;
75928;SDS011;64606;44.062;2.986;2023-02-12T08:48:34;38.47;;;18.92;;
75928;SDS011;64606;44.062;2.986;2023-02-12T08:51:08;52.08;;;23.73;;
75928;SDS011;64606;44.062;2.986;2023-02-12T08:53:34;73.35;;;32.72;;
75928;SDS011;64606;44.062;2.986;2023-02-12T08:56:00;46.10;;;20.38;;
75928;SDS011;64606;44.062;2.986;2023-02-12T08:58:27;30.45;;;15.68;;
75928;SDS011;64606;44.062;2.986;2023-02-12T09:00:53;22.40;;;10.80;;
75928;SDS011;64606;44.062;2.986;2023-02-12T09:03:19;22.83;;;11.60;;
75928;SDS011;64606;44.062;2.986;2023-02-12T09:05:45;22.85;;;11.00;;
75928;SDS011;64606;44.062;2.986;2023-02-12T09:08:12;55.45;;;19.73;;
75928;SDS011;64606;44.062;2.986;2023-02-12T09:10:38;20.77;;;10.50;;
75928;SDS011;64606;44.062;2.986;2023-02-12T09:13:05;38.13;;;15.13;;
75928;SDS011;64606;44.062;2.986;2023-02-12T09:15:35;30.20;;;13.50;;
75928;SDS011;64606;44.062;2.986;2023-02-12T09:18:02;40.88;;;17.35;;
75928;SDS011;64606;44.062;2.986;2023-02-12T09:20:28;31.63;;;14.43;;
75928;SDS011;64606;44.062;2.986;2023-02-12T09:22:55;25.30;;;11.63;;
75928;SDS011;64606;44.062;2.986;2023-02-12T09:25:21;28.10;;;13.25;;
75928;SDS011;64606;44.062;2.986;2023-02-12T09:27:47;26.48;;;12.73;;
75928;SDS011;64606;44.062;2.986;2023-02-12T09:30:13;23.83;;;10.90;;
75928;SDS011;64606;44.062;2.986;2023-02-12T09:32:39;21.30;;;9.68;;
75928;SDS011;64606;44.062;2.986;2023-02-12T09:35:06;19.90;;;9.13;;
75928;SDS011;64606;44.062;2.986;2023-02-12T09:37:32;19.10;;;9.60;;
75928;SDS011;64606;44.062;2.986;2023-02-12T09:39:58;22.67;;;10.00;;
75928;SDS011;64606;44.062;2.986;2023-02-12T09:43:26;25.27;;;12.40;;
75928;SDS011;64606;44.062;2.986;2023-02-12T09:45:21;21.10;;;10.95;;
75928;SDS011;64606;44.062;2.986;2023-02-12T09:47:51;21.00;;;10.10;;
75928;SDS011;64606;44.062;2.986;2023-02-12T09:52:53;17.88;;;9.07;;
75928;SDS011;64606;44.062;2.986;2023-02-12T09:55:21;18.45;;;9.13;;
75928;SDS011;64606;44.062;2.986;2023-02-12T09:57:51;17.65;;;9.32;;
75928;SDS011;64606;44.062;2.986;2023-02-12T10:00:18;24.10;;;10.55;;
75928;SDS011;64606;44.062;2.986;2023-02-12T10:02:46;19.77;;;10.35;;
75928;SDS011;64606;44.062;2.986;2023-02-12T10:05:16;20.55;;;9.90;;
75928;SDS011;64606;44.062;2.986;2023-02-12T10:15:16;39.55;;;12.50;;
75928;SDS011;64606;44.062;2.986;2023-02-12T10:18:02;32.30;;;12.52;;
75928;SDS011;64606;44.062;2.986;2023-02-12T10:20:47;28.20;;;11.68;;
75928;SDS011;64606;44.062;2.986;2023-02-12T10:25:53;23.38;;;11.25;;
75928;SDS011;64606;44.062;2.986;2023-02-12T10:28:22;27.67;;;11.07;;
75928;SDS011;64606;44.062;2.986;2023-02-12T10:30:51;27.40;;;11.20;;
75928;SDS011;64606;44.062;2.986;2023-02-12T10:35:50;19.33;;;9.15;;
75928;SDS011;64606;44.062;2.986;2023-02-12T10:38:19;20.25;;;9.02;;
75928;SDS011;64606;44.062;2.986;2023-02-12T10:40:46;18.08;;;8.32;;
75928;SDS011;64606;44.062;2.986;2023-02-12T10:43:14;17.25;;;8.75;;
75928;SDS011;64606;44.062;2.986;2023-02-12T10:45:42;18.02;;;8.57;;
75928;SDS011;64606;44.062;2.986;2023-02-12T10:48:10;18.50;;;8.13;;
75928;SDS011;64606;44.062;2.986;2023-02-12T10:50:40;14.18;;;7.88;;
75928;SDS011;64606;44.062;2.986;2023-02-12T10:53:31;14.02;;;7.50;;
75928;SDS011;64606;44.062;2.986;2023-02-12T10:56:09;12.57;;;7.10;;
75928;SDS011;64606;44.062;2.986;2023-02-12T11:01:16;13.52;;;6.85;;
75928;SDS011;64606;44.062;2.986;2023-02-12T11:03:44;12.07;;;7.00;;
75928;SDS011;64606;44.062;2.986;2023-02-12T11:06:14;13.70;;;6.80;;
75928;SDS011;64606;44.062;2.986;2023-02-12T11:08:41;14.85;;;6.68;;
75928;SDS011;64606;44.062;2.986;2023-02-12T11:11:08;12.63;;;6.75;;
75928;SDS011;64606;44.062;2.986;2023-02-12T11:13:35;13.27;;;6.63;;
75928;SDS011;64606;44.062;2.986;2023-02-12T11:16:02;12.15;;;6.43;;
75928;SDS011;64606;44.062;2.986;2023-02-12T11:18:29;12.13;;;6.30;;
75928;SDS011;64606;44.062;2.986;2023-02-12T11:21:02;10.93;;;5.70;;
75928;SDS011;64606;44.062;2.986;2023-02-12T11:23:30;10.18;;;5.30;;
75928;SDS011;64606;44.062;2.986;2023-02-12T11:25:58;12.73;;;6.30;;
75928;SDS011;64606;44.062;2.986;2023-02-12T11:28:25;17.02;;;6.75;;
75928;SDS011;64606;44.062;2.986;2023-02-12T11:31:01;10.70;;;6.10;;
75928;SDS011;64606;44.062;2.986;2023-02-12T11:33:28;10.68;;;5.20;;
75928;SDS011;64606;44.062;2.986;2023-02-12T11:35:56;9.85;;;5.43;;
75928;SDS011;64606;44.062;2.986;2023-02-12T11:38:24;10.02;;;5.28;;
75928;SDS011;64606;44.062;2.986;2023-02-12T11:40:52;10.35;;;5.13;;
75928;SDS011;64606;44.062;2.986;2023-02-12T11:43:19;10.70;;;5.00;;
75928;SDS011;64606;44.062;2.986;2023-02-12T11:45:49;9.88;;;4.82;;
75928;SDS011;64606;44.062;2.986;2023-02-12T11:48:21;13.05;;;5.00;;
75928;SDS011;64606;44.062;2.986;2023-02-12T11:50:49;11.63;;;5.07;;
75928;SDS011;64606;44.062;2.986;2023-02-12T11:53:24;7.65;;;4.13;;
75928;SDS011;64606;44.062;2.986;2023-02-12T11:56:09;7.60;;;4.15;;
75928;SDS011;64606;44.062;2.986;2023-02-12T11:58:36;7.88;;;4.30;;
75928;SDS011;64606;44.062;2.986;2023-02-12T12:03:48;7.78;;;4.35;;
75928;SDS011;64606;44.062;2.986;2023-02-12T12:09:33;8.95;;;4.55;;
75928;SDS011;64606;44.062;2.986;2023-02-12T12:16:39;9.40;;;4.65;;
75928;SDS011;64606;44.062;2.986;2023-02-12T12:19:49;8.90;;;4.28;;
75928;SDS011;64606;44.062;2.986;2023-02-12T12:27:56;8.80;;;3.88;;
75928;SDS011;64606;44.062;2.986;2023-02-12T12:33:02;7.40;;;3.97;;
75928;SDS011;64606;44.062;2.986;2023-02-12T12:35:42;6.00;;;3.50;;
75928;SDS011;64606;44.062;2.986;2023-02-12T12:48:25;9.45;;;4.78;;
75928;SDS011;64606;44.062;2.986;2023-02-12T12:51:04;11.55;;;5.28;;
75928;SDS011;64606;44.062;2.986;2023-02-12T12:53:40;10.57;;;5.13;;
75928;SDS011;64606;44.062;2.986;2023-02-12T12:56:15;9.27;;;4.43;;
75928;SDS011;64606;44.062;2.986;2023-02-12T13:13:43;7.97;;;4.00;;
75928;SDS011;64606;44.062;2.986;2023-02-12T13:16:15;9.45;;;4.43;;
75928;SDS011;64606;44.062;2.986;2023-02-12T13:21:47;6.57;;;3.67;;
75928;SDS011;64606;44.062;2.986;2023-02-12T13:24:34;6.13;;;3.55;;
75928;SDS011;64606;44.062;2.986;2023-02-12T13:27:03;7.20;;;3.80;;
75928;SDS011;64606;44.062;2.986;2023-02-12T13:29:34;7.07;;;3.63;;
75928;SDS011;64606;44.062;2.986;2023-02-12T13:32:06;7.47;;;3.85;;
75928;SDS011;64606;44.062;2.986;2023-02-12T13:34:36;7.80;;;3.72;;
75928;SDS011;64606;44.062;2.986;2023-02-12T13:37:04;7.53;;;3.42;;
75928;SDS011;64606;44.062;2.986;2023-02-12T13:39:33;6.32;;;3.55;;
75928;SDS011;64606;44.062;2.986;2023-02-12T13:52:42;6.83;;;3.40;;
75928;SDS011;64606;44.062;2.986;2023-02-12T13:57:42;17.30;;;7.72;;
75928;SDS011;64606;44.062;2.986;2023-02-12T14:02:54;5.82;;;3.38;;
75928;SDS011;64606;44.062;2.986;2023-02-12T14:05:27;7.45;;;3.20;;
75928;SDS011;64606;44.062;2.986;2023-02-12T14:07:55;9.52;;;4.32;;
75928;SDS011;64606;44.062;2.986;2023-02-12T14:10:33;5.90;;;3.03;;
75928;SDS011;64606;44.062;2.986;2023-02-12T14:13:17;3.22;;;1.92;;
75928;SDS011;64606;44.062;2.986;2023-02-12T14:15:45;4.20;;;2.17;;
75928;SDS011;64606;44.062;2.986;2023-02-12T14:20:47;3.85;;;2.47;;
75928;SDS011;64606;44.062;2.986;2023-02-12T14:26:02;6.40;;;2.97;;
75928;SDS011;64606;44.062;2.986;2023-02-12T14:31:20;6.50;;;2.40;;
75928;SDS011;64606;44.062;2.986;2023-02-12T14:36:40;5.50;;;2.33;;
75928;SDS011;64606;44.062;2.986;2023-02-12T14:41:49;5.75;;;2.60;;
75928;SDS011;64606;44.062;2.986;2023-02-12T14:49:27;5.05;;;2.95;;
75928;SDS011;64606;44.062;2.986;2023-02-12T14:54:43;5.65;;;3.10;;
75928;SDS011;64606;44.062;2.986;2023-02-12T14:57:24;5.55;;;2.65;;
75928;SDS011;64606;44.062;2.986;2023-02-12T14:59:51;6.93;;;3.40;;
75928;SDS011;64606;44.062;2.986;2023-02-12T15:02:36;6.00;;;3.38;;
75928;SDS011;64606;44.062;2.986;2023-02-12T15:05:10;5.43;;;2.75;;
75928;SDS011;64606;44.062;2.986;2023-02-12T15:07:42;6.88;;;3.50;;
75928;SDS011;64606;44.062;2.986;2023-02-12T15:10:14;6.45;;;3.08;;
75928;SDS011;64606;44.062;2.986;2023-02-12T15:12:42;4.68;;;2.90;;
75928;SDS011;64606;44.062;2.986;2023-02-12T15:17:56;5.07;;;3.00;;
75928;SDS011;64606;44.062;2.986;2023-02-12T15:20:34;6.85;;;4.05;;
75928;SDS011;64606;44.062;2.986;2023-02-12T15:23:24;8.10;;;4.05;;
75928;SDS011;64606;44.062;2.986;2023-02-12T15:25:49;7.90;;;3.60;;
75928;SDS011;64606;44.062;2.986;2023-02-12T15:28:19;7.55;;;3.80;;
75928;SDS011;64606;44.062;2.986;2023-02-12T15:30:46;6.78;;;3.30;;
75928;SDS011;64606;44.062;2.986;2023-02-12T15:33:19;7.13;;;3.55;;
75928;SDS011;64606;44.062;2.986;2023-02-12T15:35:48;8.63;;;4.13;;
75928;SDS011;64606;44.062;2.986;2023-02-12T15:38:17;7.28;;;3.90;;
75928;SDS011;64606;44.062;2.986;2023-02-12T15:40:55;6.07;;;3.63;;
75928;SDS011;64606;44.062;2.986;2023-02-12T15:43:24;6.28;;;3.72;;
75928;SDS011;64606;44.062;2.986;2023-02-12T15:45:51;7.15;;;4.32;;
75928;SDS011;64606;44.062;2.986;2023-02-12T15:48:18;8.55;;;4.53;;
75928;SDS011;64606;44.062;2.986;2023-02-12T15:53:13;10.50;;;5.30;;
75928;SDS011;64606;44.062;2.986;2023-02-12T15:55:41;9.27;;;5.05;;
75928;SDS011;64606;44.062;2.986;2023-02-12T16:00:47;15.18;;;7.80;;
75928;SDS011;64606;44.062;2.986;2023-02-12T16:03:32;11.30;;;7.10;;
75928;SDS011;64606;44.062;2.986;2023-02-12T16:06:06;12.35;;;6.60;;
75928;SDS011;64606;44.062;2.986;2023-02-12T16:08:38;15.93;;;8.35;;
75928;SDS011;64606;44.062;2.986;2023-02-12T16:11:04;16.73;;;8.30;;
75928;SDS011;64606;44.062;2.986;2023-02-12T16:13:39;10.73;;;5.45;;
75928;SDS011;64606;44.062;2.986;2023-02-12T16:18:36;15.57;;;8.10;;
75928;SDS011;64606;44.062;2.986;2023-02-12T16:21:16;8.93;;;5.03;;
75928;SDS011;64606;44.062;2.986;2023-02-12T16:23:44;9.52;;;4.32;;
75928;SDS011;64606;44.062;2.986;2023-02-12T16:26:23;7.82;;;3.92;;
75928;SDS011;64606;44.062;2.986;2023-02-12T16:28:51;8.90;;;4.75;;
75928;SDS011;64606;44.062;2.986;2023-02-12T16:31:18;7.90;;;3.67;;
75928;SDS011;64606;44.062;2.986;2023-02-12T16:33:47;7.30;;;3.72;;
75928;SDS011;64606;44.062;2.986;2023-02-12T16:36:25;10.73;;;4.38;;
75928;SDS011;64606;44.062;2.986;2023-02-12T16:38:53;8.73;;;4.40;;
75928;SDS011;64606;44.062;2.986;2023-02-12T16:43:48;16.33;;;6.00;;
75928;SDS011;64606;44.062;2.986;2023-02-12T16:46:15;12.52;;;5.72;;
75928;SDS011;64606;44.062;2.986;2023-02-12T16:48:43;13.55;;;6.07;;
75928;SDS011;64606;44.062;2.986;2023-02-12T16:51:26;13.52;;;5.80;;
75928;SDS011;64606;44.062;2.986;2023-02-12T16:53:54;8.80;;;3.95;;
75928;SDS011;64606;44.062;2.986;2023-02-12T16:56:22;6.60;;;3.42;;
75928;SDS011;64606;44.062;2.986;2023-02-12T16:58:49;6.60;;;3.17;;
75928;SDS011;64606;44.062;2.986;2023-02-12T17:01:23;6.13;;;3.40;;
75928;SDS011;64606;44.062;2.986;2023-02-12T17:03:50;10.18;;;5.13;;
75928;SDS011;64606;44.062;2.986;2023-02-12T17:06:20;8.00;;;4.25;;
75928;SDS011;64606;44.062;2.986;2023-02-12T17:08:47;7.82;;;3.63;;
75928;SDS011;64606;44.062;2.986;2023-02-12T17:11:13;15.02;;;6.57;;
75928;SDS011;64606;44.062;2.986;2023-02-12T17:13:42;12.20;;;6.07;;